KCSM/CSM METAR and TAF weather

Enter ICAO airport designator
Station Type Date Time Source
KCSM METAR 2019/02/23 17:53 UTC NOAA

KCSM 231753Z AUTO 23030G37KT 10SM SCT049 11/M01 A2959 RMK AO2 PK WND 23040/1654 SLPNO 60001 T01111006 10111 20056 55001 $


Station Type Date Time Source
KCSM Decoded METAR 2019/02/23 17:53 UTC NOAA

CLINTON-SHERMAN AIRPORT, OK, United States (KCSM) 35-21E 99-12W 588M
Feb 23, 2019 - 12:53 PM EST / 2019.02.23 1753 UTC
Wind: from the SW (230 degrees) at 35 MPH (30 KT) gusting to 43 MPH (37 KT):0
Visibility: 10 mile(s):0
Sky conditions: partly cloudy
Temperature: 52.0 F (11.1 C)
Dew Point: 30.9 F (-0.6 C)
Relative Humidity: 44%
Pressure (altimeter): 29.59 in. Hg (1002 hPa)
Pressure tendency: 0.00 inches (0.1 hPa) lower than three hours ago
ob: KCSM 231753Z AUTO 23030G37KT 10SM SCT049 11/M01 A2959 RMK AO2 PK WND 23040/1654 SLPNO 60001 T01111006 10111 20056 55001
cycle: 18

Station Type Date Time Source
KCSM TAF 2019/02/23 18:22 UTC NOAA

TAF KCSM 231720Z 2318/2418 25025G35KT P6SM SKC
FM232000 31035G45KT P6SM SCT040
FM240000 31022G30KT P6SM SCT040
FM240300 32012KT P6SM SKC


Example: see airport list